sensor_id;sensor_type;location;lat;lon;timestamp;temperature;humidity
72940;DHT22;61094;51.154;13.570;2023-02-01T00:00:50;5.00;99.90
72940;DHT22;61094;51.154;13.570;2023-02-01T00:02:52;5.00;99.90
72940;DHT22;61094;51.154;13.570;2023-02-01T00:04:54;5.00;99.90
72940;DHT22;61094;51.154;13.570;2023-02-01T00:06:55;5.00;99.90
72940;DHT22;61094;51.154;13.570;2023-02-01T00:08:57;5.00;99.90
72940;DHT22;61094;51.154;13.570;2023-02-01T00:11:01;5.00;99.90
72940;DHT22;61094;51.154;13.570;2023-02-01T00:13:03;5.00;99.90
72940;DHT22;61094;51.154;13.570;2023-02-01T00:15:05;5.00;99.90
72940;DHT22;61094;51.154;13.570;2023-02-01T00:17:07;5.10;99.90
72940;DHT22;61094;51.154;13.570;2023-02-01T00:19:12;5.10;99.90
72940;DHT22;61094;51.154;13.570;2023-02-01T00:21:15;5.10;99.90
72940;DHT22;61094;51.154;13.570;2023-02-01T00:23:17;5.10;99.90
72940;DHT22;61094;51.154;13.570;2023-02-01T00:25:19;5.00;99.90
72940;DHT22;61094;51.154;13.570;2023-02-01T00:27:22;5.00;99.90
72940;DHT22;61094;51.154;13.570;2023-02-01T00:29:23;5.00;99.90
72940;DHT22;61094;51.154;13.570;2023-02-01T00:31:25;5.00;99.90
72940;DHT22;61094;51.154;13.570;2023-02-01T00:33:27;5.00;99.90
72940;DHT22;61094;51.154;13.570;2023-02-01T00:35:29;5.10;99.90
72940;DHT22;61094;51.154;13.570;2023-02-01T00:37:30;5.00;99.90
72940;DHT22;61094;51.154;13.570;2023-02-01T00:39:32;5.10;99.90
72940;DHT22;61094;51.154;13.570;2023-02-01T00:41:34;5.10;99.90
72940;DHT22;61094;51.154;13.570;2023-02-01T00:43:37;5.10;99.90
72940;DHT22;61094;51.154;13.570;2023-02-01T00:45:39;5.10;99.90
72940;DHT22;61094;51.154;13.570;2023-02-01T00:47:40;5.10;99.90
72940;DHT22;61094;51.154;13.570;2023-02-01T00:49:42;5.10;99.90
72940;DHT22;61094;51.154;13.570;2023-02-01T00:51:43;5.10;99.90
72940;DHT22;61094;51.154;13.570;2023-02-01T00:53:45;5.10;99.90
72940;DHT22;61094;51.154;13.570;2023-02-01T00:55:48;5.10;99.90
72940;DHT22;61094;51.154;13.570;2023-02-01T00:57:49;5.10;99.90
72940;DHT22;61094;51.154;13.570;2023-02-01T00:59:52;5.00;99.90
72940;DHT22;61094;51.154;13.570;2023-02-01T01:01:54;5.00;99.90
72940;DHT22;61094;51.154;13.570;2023-02-01T01:03:57;5.00;99.90
72940;DHT22;61094;51.154;13.570;2023-02-01T01:06:00;5.00;99.90
72940;DHT22;61094;51.154;13.570;2023-02-01T01:08:03;5.00;99.90
72940;DHT22;61094;51.154;13.570;2023-02-01T01:10:05;5.00;99.90
72940;DHT22;61094;51.154;13.570;2023-02-01T01:12:07;5.00;99.90
72940;DHT22;61094;51.154;13.570;2023-02-01T01:14:09;5.00;99.90
72940;DHT22;61094;51.154;13.570;2023-02-01T01:16:13;5.00;99.90
72940;DHT22;61094;51.154;13.570;2023-02-01T01:18:15;5.00;99.90
72940;DHT22;61094;51.154;13.570;2023-02-01T01:20:17;5.00;99.90
72940;DHT22;61094;51.154;13.570;2023-02-01T01:22:21;5.00;99.90
72940;DHT22;61094;51.154;13.570;2023-02-01T01:24:23;5.00;99.90
72940;DHT22;61094;51.154;13.570;2023-02-01T01:26:26;5.00;99.90
72940;DHT22;61094;51.154;13.570;2023-02-01T01:28:29;5.00;99.90
72940;DHT22;61094;51.154;13.570;2023-02-01T01:30:31;5.00;99.90
72940;DHT22;61094;51.154;13.570;2023-02-01T01:32:34;5.00;99.90
72940;DHT22;61094;51.154;13.570;2023-02-01T01:34:35;5.00;99.90
72940;DHT22;61094;51.154;13.570;2023-02-01T01:36:37;5.00;99.90
72940;DHT22;61094;51.154;13.570;2023-02-01T01:38:39;5.00;99.90
72940;DHT22;61094;51.154;13.570;2023-02-01T01:40:45;5.00;99.90
72940;DHT22;61094;51.154;13.570;2023-02-01T01:42:47;5.00;99.90
72940;DHT22;61094;51.154;13.570;2023-02-01T01:45:01;5.10;99.90
72940;DHT22;61094;51.154;13.570;2023-02-01T01:47:05;5.00;99.90
72940;DHT22;61094;51.154;13.570;2023-02-01T01:49:11;5.00;99.90
72940;DHT22;61094;51.154;13.570;2023-02-01T01:51:17;5.00;99.90
72940;DHT22;61094;51.154;13.570;2023-02-01T01:53:23;5.00;99.90
72940;DHT22;61094;51.154;13.570;2023-02-01T01:55:27;5.00;99.90
72940;DHT22;61094;51.154;13.570;2023-02-01T01:57:34;5.00;99.90
72940;DHT22;61094;51.154;13.570;2023-02-01T01:59:38;5.10;99.90
72940;DHT22;61094;51.154;13.570;2023-02-01T02:01:41;5.10;99.90
72940;DHT22;61094;51.154;13.570;2023-02-01T02:03:44;5.10;99.90
72940;DHT22;61094;51.154;13.570;2023-02-01T02:05:50;5.10;99.90
72940;DHT22;61094;51.154;13.570;2023-02-01T02:07:53;5.10;99.90
72940;DHT22;61094;51.154;13.570;2023-02-01T02:09:57;5.10;99.90
72940;DHT22;61094;51.154;13.570;2023-02-01T02:11:59;5.10;99.90
72940;DHT22;61094;51.154;13.570;2023-02-01T02:14:01;5.10;99.90
72940;DHT22;61094;51.154;13.570;2023-02-01T02:16:18;5.10;99.90
72940;DHT22;61094;51.154;13.570;2023-02-01T02:18:27;5.00;99.90
72940;DHT22;61094;51.154;13.570;2023-02-01T02:20:46;5.00;99.90
72940;DHT22;61094;51.154;13.570;2023-02-01T02:23:23;5.00;99.90
72940;DHT22;61094;51.154;13.570;2023-02-01T02:25:53;5.10;99.90
72940;DHT22;61094;51.154;13.570;2023-02-01T02:28:12;5.10;99.90
72940;DHT22;61094;51.154;13.570;2023-02-01T02:30:41;5.10;99.90
72940;DHT22;61094;51.154;13.570;2023-02-01T02:35:29;5.10;99.90
72940;DHT22;61094;51.154;13.570;2023-02-01T02:37:38;5.10;99.90
72940;DHT22;61094;51.154;13.570;2023-02-01T02:39:48;5.10;99.90
72940;DHT22;61094;51.154;13.570;2023-02-01T02:41:57;5.10;99.90
72940;DHT22;61094;51.154;13.570;2023-02-01T02:44:23;5.10;99.90
72940;DHT22;61094;51.154;13.570;2023-02-01T02:46:49;5.10;99.90
72940;DHT22;61094;51.154;13.570;2023-02-01T02:49:12;5.10;99.90
72940;DHT22;61094;51.154;13.570;2023-02-01T02:51:21;5.10;99.90
72940;DHT22;61094;51.154;13.570;2023-02-01T02:53:51;5.10;99.90
72940;DHT22;61094;51.154;13.570;2023-02-01T02:56:10;5.10;99.90
72940;DHT22;61094;51.154;13.570;2023-02-01T02:58:31;5.10;99.90
72940;DHT22;61094;51.154;13.570;2023-02-01T03:00:51;5.10;99.90
72940;DHT22;61094;51.154;13.570;2023-02-01T03:03:14;5.10;99.90
72940;DHT22;61094;51.154;13.570;2023-02-01T03:05:34;5.10;99.90
72940;DHT22;61094;51.154;13.570;2023-02-01T03:08:02;5.10;99.90
72940;DHT22;61094;51.154;13.570;2023-02-01T03:10:07;5.10;99.90
72940;DHT22;61094;51.154;13.570;2023-02-01T03:12:13;5.10;99.90
72940;DHT22;61094;51.154;13.570;2023-02-01T03:14:36;5.10;99.90
72940;DHT22;61094;51.154;13.570;2023-02-01T03:16:42;5.10;99.90
72940;DHT22;61094;51.154;13.570;2023-02-01T03:18:49;5.10;99.90
72940;DHT22;61094;51.154;13.570;2023-02-01T03:20:53;5.10;99.90
72940;DHT22;61094;51.154;13.570;2023-02-01T03:22:59;5.10;99.90
72940;DHT22;61094;51.154;13.570;2023-02-01T03:25:05;5.10;99.90
72940;DHT22;61094;51.154;13.570;2023-02-01T03:27:15;5.10;99.90
72940;DHT22;61094;51.154;13.570;2023-02-01T03:29:24;5.10;99.90
72940;DHT22;61094;51.154;13.570;2023-02-01T03:31:29;5.20;99.90
72940;DHT22;61094;51.154;13.570;2023-02-01T03:33:31;5.20;99.90
72940;DHT22;61094;51.154;13.570;2023-02-01T03:35:40;5.20;99.90
72940;DHT22;61094;51.154;13.570;2023-02-01T03:37:44;5.20;99.90
72940;DHT22;61094;51.154;13.570;2023-02-01T03:39:53;5.20;99.90
72940;DHT22;61094;51.154;13.570;2023-02-01T03:42:00;5.20;99.90
72940;DHT22;61094;51.154;13.570;2023-02-01T03:44:06;5.30;99.90
72940;DHT22;61094;51.154;13.570;2023-02-01T03:46:16;5.30;99.90
72940;DHT22;61094;51.154;13.570;2023-02-01T03:48:22;5.30;99.90
72940;DHT22;61094;51.154;13.570;2023-02-01T03:50:25;5.30;99.90
72940;DHT22;61094;51.154;13.570;2023-02-01T03:52:30;5.30;99.90
72940;DHT22;61094;51.154;13.570;2023-02-01T03:54:33;5.30;99.90
72940;DHT22;61094;51.154;13.570;2023-02-01T03:56:37;5.30;99.90
72940;DHT22;61094;51.154;13.570;2023-02-01T03:58:40;5.30;99.90
72940;DHT22;61094;51.154;13.570;2023-02-01T04:01:00;5.30;99.90
72940;DHT22;61094;51.154;13.570;2023-02-01T04:03:04;5.30;99.90
72940;DHT22;61094;51.154;13.570;2023-02-01T04:05:07;5.30;99.90
72940;DHT22;61094;51.154;13.570;2023-02-01T04:07:09;5.30;99.90
72940;DHT22;61094;51.154;13.570;2023-02-01T04:09:10;5.30;99.90
72940;DHT22;61094;51.154;13.570;2023-02-01T04:11:12;5.30;99.90
72940;DHT22;61094;51.154;13.570;2023-02-01T04:13:15;5.30;99.90
72940;DHT22;61094;51.154;13.570;2023-02-01T04:15:16;5.30;99.90
72940;DHT22;61094;51.154;13.570;2023-02-01T04:17:18;5.30;99.90
72940;DHT22;61094;51.154;13.570;2023-02-01T04:19:20;5.30;99.90
72940;DHT22;61094;51.154;13.570;2023-02-01T04:21:21;5.30;99.90
72940;DHT22;61094;51.154;13.570;2023-02-01T04:23:23;5.30;99.90
72940;DHT22;61094;51.154;13.570;2023-02-01T04:25:25;5.30;99.90
72940;DHT22;61094;51.154;13.570;2023-02-01T04:27:27;5.30;99.90
72940;DHT22;61094;51.154;13.570;2023-02-01T04:29:29;5.30;99.90
72940;DHT22;61094;51.154;13.570;2023-02-01T04:31:31;5.30;99.90
72940;DHT22;61094;51.154;13.570;2023-02-01T04:33:33;5.30;99.90
72940;DHT22;61094;51.154;13.570;2023-02-01T04:35:34;5.30;99.90
72940;DHT22;61094;51.154;13.570;2023-02-01T04:37:36;5.30;99.90
72940;DHT22;61094;51.154;13.570;2023-02-01T04:39:38;5.30;99.90
72940;DHT22;61094;51.154;13.570;2023-02-01T04:41:39;5.30;99.90
72940;DHT22;61094;51.154;13.570;2023-02-01T04:43:41;5.30;99.90
72940;DHT22;61094;51.154;13.570;2023-02-01T04:45:47;5.20;99.90
72940;DHT22;61094;51.154;13.570;2023-02-01T04:47:49;5.30;99.90
72940;DHT22;61094;51.154;13.570;2023-02-01T04:49:51;5.20;99.90
72940;DHT22;61094;51.154;13.570;2023-02-01T04:51:53;5.20;99.90
72940;DHT22;61094;51.154;13.570;2023-02-01T04:53:54;5.20;99.90
72940;DHT22;61094;51.154;13.570;2023-02-01T04:55:56;5.20;99.90
72940;DHT22;61094;51.154;13.570;2023-02-01T04:57:58;5.20;99.90
72940;DHT22;61094;51.154;13.570;2023-02-01T04:59:59;5.20;99.90
72940;DHT22;61094;51.154;13.570;2023-02-01T05:02:02;5.20;99.90
72940;DHT22;61094;51.154;13.570;2023-02-01T05:04:04;5.20;99.90
72940;DHT22;61094;51.154;13.570;2023-02-01T05:06:06;5.20;99.90
72940;DHT22;61094;51.154;13.570;2023-02-01T05:08:07;5.20;99.90
72940;DHT22;61094;51.154;13.570;2023-02-01T05:10:10;5.20;99.90
72940;DHT22;61094;51.154;13.570;2023-02-01T05:12:12;5.20;99.90
72940;DHT22;61094;51.154;13.570;2023-02-01T05:14:31;5.20;99.90
72940;DHT22;61094;51.154;13.570;2023-02-01T05:16:32;5.20;99.90
72940;DHT22;61094;51.154;13.570;2023-02-01T05:18:37;5.20;99.90
72940;DHT22;61094;51.154;13.570;2023-02-01T05:20:39;5.20;99.90
72940;DHT22;61094;51.154;13.570;2023-02-01T05:22:41;5.20;99.90
72940;DHT22;61094;51.154;13.570;2023-02-01T05:24:43;5.20;99.90
72940;DHT22;61094;51.154;13.570;2023-02-01T05:26:45;5.20;99.90
72940;DHT22;61094;51.154;13.570;2023-02-01T05:28:47;5.20;99.90
72940;DHT22;61094;51.154;13.570;2023-02-01T05:30:48;5.20;99.90
72940;DHT22;61094;51.154;13.570;2023-02-01T05:32:50;5.20;99.90
72940;DHT22;61094;51.154;13.570;2023-02-01T05:34:53;5.20;99.90
72940;DHT22;61094;51.154;13.570;2023-02-01T05:36:55;5.20;99.90
72940;DHT22;61094;51.154;13.570;2023-02-01T05:38:57;5.30;99.90
72940;DHT22;61094;51.154;13.570;2023-02-01T05:40:58;5.30;99.90
72940;DHT22;61094;51.154;13.570;2023-02-01T05:43:00;5.30;99.90
72940;DHT22;61094;51.154;13.570;2023-02-01T05:45:02;5.30;99.90
72940;DHT22;61094;51.154;13.570;2023-02-01T05:47:05;5.30;99.90
72940;DHT22;61094;51.154;13.570;2023-02-01T05:49:07;5.40;99.90
72940;DHT22;61094;51.154;13.570;2023-02-01T05:51:10;5.30;99.90
72940;DHT22;61094;51.154;13.570;2023-02-01T05:53:13;5.40;99.90
72940;DHT22;61094;51.154;13.570;2023-02-01T05:55:14;5.30;99.90
72940;DHT22;61094;51.154;13.570;2023-02-01T05:57:16;5.40;99.90
72940;DHT22;61094;51.154;13.570;2023-02-01T05:59:18;5.40;99.90
72940;DHT22;61094;51.154;13.570;2023-02-01T06:01:19;5.40;99.90
72940;DHT22;61094;51.154;13.570;2023-02-01T06:03:21;5.30;99.90
72940;DHT22;61094;51.154;13.570;2023-02-01T06:05:23;5.40;99.90
72940;DHT22;61094;51.154;13.570;2023-02-01T06:07:26;5.30;99.90
72940;DHT22;61094;51.154;13.570;2023-02-01T06:09:28;5.30;99.90
72940;DHT22;61094;51.154;13.570;2023-02-01T06:11:29;5.30;99.90
72940;DHT22;61094;51.154;13.570;2023-02-01T06:13:32;5.30;99.90
72940;DHT22;61094;51.154;13.570;2023-02-01T06:15:34;5.30;99.90
72940;DHT22;61094;51.154;13.570;2023-02-01T06:17:35;5.30;99.90
72940;DHT22;61094;51.154;13.570;2023-02-01T06:19:38;5.30;99.90
72940;DHT22;61094;51.154;13.570;2023-02-01T06:21:40;5.30;99.90
72940;DHT22;61094;51.154;13.570;2023-02-01T06:23:43;5.30;99.90
72940;DHT22;61094;51.154;13.570;2023-02-01T06:25:45;5.40;99.90
72940;DHT22;61094;51.154;13.570;2023-02-01T06:27:47;5.30;99.90
72940;DHT22;61094;51.154;13.570;2023-02-01T06:29:48;5.30;99.90
72940;DHT22;61094;51.154;13.570;2023-02-01T06:31:50;5.40;99.90
72940;DHT22;61094;51.154;13.570;2023-02-01T06:33:52;5.30;99.90
72940;DHT22;61094;51.154;13.570;2023-02-01T06:35:57;5.40;99.90
72940;DHT22;61094;51.154;13.570;2023-02-01T06:37:59;5.40;99.90
72940;DHT22;61094;51.154;13.570;2023-02-01T06:40:03;5.30;99.90
72940;DHT22;61094;51.154;13.570;2023-02-01T06:42:05;5.40;99.90
72940;DHT22;61094;51.154;13.570;2023-02-01T06:44:06;5.40;99.90
72940;DHT22;61094;51.154;13.570;2023-02-01T06:46:11;5.40;99.90
72940;DHT22;61094;51.154;13.570;2023-02-01T06:48:13;5.40;99.90
72940;DHT22;61094;51.154;13.570;2023-02-01T06:50:15;5.40;99.90
72940;DHT22;61094;51.154;13.570;2023-02-01T06:52:17;5.30;99.90
72940;DHT22;61094;51.154;13.570;2023-02-01T06:54:18;5.30;99.90
72940;DHT22;61094;51.154;13.570;2023-02-01T06:56:22;5.30;99.90
72940;DHT22;61094;51.154;13.570;2023-02-01T06:58:24;5.30;99.90
72940;DHT22;61094;51.154;13.570;2023-02-01T07:00:25;5.30;99.90
72940;DHT22;61094;51.154;13.570;2023-02-01T07:02:27;5.30;99.90
72940;DHT22;61094;51.154;13.570;2023-02-01T07:04:29;5.30;99.90
72940;DHT22;61094;51.154;13.570;2023-02-01T07:06:31;5.30;99.90
72940;DHT22;61094;51.154;13.570;2023-02-01T07:08:34;5.30;99.90
72940;DHT22;61094;51.154;13.570;2023-02-01T07:10:37;5.30;99.90
72940;DHT22;61094;51.154;13.570;2023-02-01T07:12:40;5.30;99.90
72940;DHT22;61094;51.154;13.570;2023-02-01T07:14:44;5.30;99.90
72940;DHT22;61094;51.154;13.570;2023-02-01T07:16:45;5.30;99.90
72940;DHT22;61094;51.154;13.570;2023-02-01T07:18:47;5.30;99.90
72940;DHT22;61094;51.154;13.570;2023-02-01T07:20:50;5.20;99.90
72940;DHT22;61094;51.154;13.570;2023-02-01T07:22:55;5.20;99.90
72940;DHT22;61094;51.154;13.570;2023-02-01T07:24:56;5.10;99.90
72940;DHT22;61094;51.154;13.570;2023-02-01T07:26:58;5.10;99.90
72940;DHT22;61094;51.154;13.570;2023-02-01T07:29:01;5.10;99.90
72940;DHT22;61094;51.154;13.570;2023-02-01T07:31:03;5.00;99.90
72940;DHT22;61094;51.154;13.570;2023-02-01T07:33:05;5.00;99.90
72940;DHT22;61094;51.154;13.570;2023-02-01T07:35:08;5.00;99.90
72940;DHT22;61094;51.154;13.570;2023-02-01T07:37:09;4.90;99.90
72940;DHT22;61094;51.154;13.570;2023-02-01T07:39:11;4.90;99.90
72940;DHT22;61094;51.154;13.570;2023-02-01T07:41:13;4.90;99.90
72940;DHT22;61094;51.154;13.570;2023-02-01T07:43:17;4.90;99.90
72940;DHT22;61094;51.154;13.570;2023-02-01T07:45:20;4.90;99.90
72940;DHT22;61094;51.154;13.570;2023-02-01T07:47:21;4.90;99.90
72940;DHT22;61094;51.154;13.570;2023-02-01T07:49:23;4.90;99.90
72940;DHT22;61094;51.154;13.570;2023-02-01T07:51:25;5.00;99.90
72940;DHT22;61094;51.154;13.570;2023-02-01T07:53:27;5.00;99.90
72940;DHT22;61094;51.154;13.570;2023-02-01T07:55:30;5.00;99.90
72940;DHT22;61094;51.154;13.570;2023-02-01T07:57:31;5.00;99.90
72940;DHT22;61094;51.154;13.570;2023-02-01T07:59:33;5.00;99.90
72940;DHT22;61094;51.154;13.570;2023-02-01T08:01:37;5.00;99.90
72940;DHT22;61094;51.154;13.570;2023-02-01T08:03:38;5.00;99.90
72940;DHT22;61094;51.154;13.570;2023-02-01T08:05:39;5.00;99.90
72940;DHT22;61094;51.154;13.570;2023-02-01T08:07:41;5.00;99.90
72940;DHT22;61094;51.154;13.570;2023-02-01T08:09:43;5.00;99.90
72940;DHT22;61094;51.154;13.570;2023-02-01T08:11:44;5.00;99.90
72940;DHT22;61094;51.154;13.570;2023-02-01T08:13:46;5.00;99.90
72940;DHT22;61094;51.154;13.570;2023-02-01T08:15:48;5.00;99.90
72940;DHT22;61094;51.154;13.570;2023-02-01T08:17:51;5.00;99.90
72940;DHT22;61094;51.154;13.570;2023-02-01T08:19:54;5.00;99.90
72940;DHT22;61094;51.154;13.570;2023-02-01T08:21:56;5.00;99.90
72940;DHT22;61094;51.154;13.570;2023-02-01T08:23:59;4.90;99.90
72940;DHT22;61094;51.154;13.570;2023-02-01T08:26:06;4.90;99.90
72940;DHT22;61094;51.154;13.570;2023-02-01T08:28:09;4.90;99.90
72940;DHT22;61094;51.154;13.570;2023-02-01T08:30:11;4.80;99.90
72940;DHT22;61094;51.154;13.570;2023-02-01T08:32:13;4.90;99.90
72940;DHT22;61094;51.154;13.570;2023-02-01T08:34:16;4.80;99.90
72940;DHT22;61094;51.154;13.570;2023-02-01T08:36:18;4.90;99.90
72940;DHT22;61094;51.154;13.570;2023-02-01T08:38:20;4.90;99.90
72940;DHT22;61094;51.154;13.570;2023-02-01T08:40:22;4.90;99.90
72940;DHT22;61094;51.154;13.570;2023-02-01T08:42:23;5.00;99.90
72940;DHT22;61094;51.154;13.570;2023-02-01T08:44:42;5.00;99.90
72940;DHT22;61094;51.154;13.570;2023-02-01T08:46:44;5.10;99.90
72940;DHT22;61094;51.154;13.570;2023-02-01T08:48:46;5.10;99.90
72940;DHT22;61094;51.154;13.570;2023-02-01T08:50:49;5.10;99.90
72940;DHT22;61094;51.154;13.570;2023-02-01T08:52:51;5.20;99.90
72940;DHT22;61094;51.154;13.570;2023-02-01T08:54:53;5.30;99.90
72940;DHT22;61094;51.154;13.570;2023-02-01T08:56:55;5.40;99.90
72940;DHT22;61094;51.154;13.570;2023-02-01T08:58:56;5.40;99.90
72940;DHT22;61094;51.154;13.570;2023-02-01T09:01:02;5.40;99.90
72940;DHT22;61094;51.154;13.570;2023-02-01T09:03:04;5.50;99.90
72940;DHT22;61094;51.154;13.570;2023-02-01T09:05:06;5.50;99.90
72940;DHT22;61094;51.154;13.570;2023-02-01T09:07:10;5.60;99.90
72940;DHT22;61094;51.154;13.570;2023-02-01T09:09:13;5.50;99.90
72940;DHT22;61094;51.154;13.570;2023-02-01T09:11:16;5.60;99.90
72940;DHT22;61094;51.154;13.570;2023-02-01T09:13:19;5.60;99.90
72940;DHT22;61094;51.154;13.570;2023-02-01T09:15:22;5.60;99.90
72940;DHT22;61094;51.154;13.570;2023-02-01T09:17:24;5.60;99.90
72940;DHT22;61094;51.154;13.570;2023-02-01T09:19:26;5.70;99.90
72940;DHT22;61094;51.154;13.570;2023-02-01T09:21:28;5.70;99.90
72940;DHT22;61094;51.154;13.570;2023-02-01T09:23:31;5.70;99.90
72940;DHT22;61094;51.154;13.570;2023-02-01T09:25:33;5.70;99.90
72940;DHT22;61094;51.154;13.570;2023-02-01T09:27:34;5.70;99.90
72940;DHT22;61094;51.154;13.570;2023-02-01T09:29:36;5.70;99.90
72940;DHT22;61094;51.154;13.570;2023-02-01T09:31:38;5.60;99.90
72940;DHT22;61094;51.154;13.570;2023-02-01T09:33:40;5.70;99.90
72940;DHT22;61094;51.154;13.570;2023-02-01T09:35:42;5.60;99.90
72940;DHT22;61094;51.154;13.570;2023-02-01T09:37:44;5.60;99.90
72940;DHT22;61094;51.154;13.570;2023-02-01T09:39:47;5.60;99.90
72940;DHT22;61094;51.154;13.570;2023-02-01T09:41:57;5.50;99.90
72940;DHT22;61094;51.154;13.570;2023-02-01T09:44:08;5.50;99.90
72940;DHT22;61094;51.154;13.570;2023-02-01T09:46:20;5.40;99.90
72940;DHT22;61094;51.154;13.570;2023-02-01T09:48:29;5.30;99.90
72940;DHT22;61094;51.154;13.570;2023-02-01T09:50:35;5.20;99.90
72940;DHT22;61094;51.154;13.570;2023-02-01T09:52:40;5.00;99.90
72940;DHT22;61094;51.154;13.570;2023-02-01T09:54:49;4.90;99.90
72940;DHT22;61094;51.154;13.570;2023-02-01T09:56:57;4.70;99.90
72940;DHT22;61094;51.154;13.570;2023-02-01T09:59:06;4.60;99.90
72940;DHT22;61094;51.154;13.570;2023-02-01T10:01:14;4.50;99.90
72940;DHT22;61094;51.154;13.570;2023-02-01T10:03:16;4.40;99.90
72940;DHT22;61094;51.154;13.570;2023-02-01T10:07:42;4.30;99.90
72940;DHT22;61094;51.154;13.570;2023-02-01T10:09:58;4.30;99.90
72940;DHT22;61094;51.154;13.570;2023-02-01T10:12:36;4.30;99.90
72940;DHT22;61094;51.154;13.570;2023-02-01T10:14:51;4.20;99.90
72940;DHT22;61094;51.154;13.570;2023-02-01T10:17:02;4.20;99.90
72940;DHT22;61094;51.154;13.570;2023-02-01T10:19:23;4.20;99.90
72940;DHT22;61094;51.154;13.570;2023-02-01T10:21:35;4.20;99.90
72940;DHT22;61094;51.154;13.570;2023-02-01T10:23:59;4.20;99.90
72940;DHT22;61094;51.154;13.570;2023-02-01T10:26:10;4.20;99.90
72940;DHT22;61094;51.154;13.570;2023-02-01T10:28:16;4.20;99.90
72940;DHT22;61094;51.154;13.570;2023-02-01T10:30:21;4.30;99.90
72940;DHT22;61094;51.154;13.570;2023-02-01T10:32:41;4.30;99.90
72940;DHT22;61094;51.154;13.570;2023-02-01T10:34:50;4.30;99.90
72940;DHT22;61094;51.154;13.570;2023-02-01T10:37:17;4.40;99.90
72940;DHT22;61094;51.154;13.570;2023-02-01T10:42:33;4.40;99.90
72940;DHT22;61094;51.154;13.570;2023-02-01T10:44:36;4.50;99.90
72940;DHT22;61094;51.154;13.570;2023-02-01T10:46:43;4.60;99.90
72940;DHT22;61094;51.154;13.570;2023-02-01T10:48:46;4.60;99.90
72940;DHT22;61094;51.154;13.570;2023-02-01T10:50:53;4.70;99.90
72940;DHT22;61094;51.154;13.570;2023-02-01T10:53:00;4.80;99.90
72940;DHT22;61094;51.154;13.570;2023-02-01T10:55:25;4.90;99.90
72940;DHT22;61094;51.154;13.570;2023-02-01T10:57:27;5.00;99.90
72940;DHT22;61094;51.154;13.570;2023-02-01T10:59:36;5.10;99.90
72940;DHT22;61094;51.154;13.570;2023-02-01T11:01:40;5.10;99.90
72940;DHT22;61094;51.154;13.570;2023-02-01T11:03:44;5.10;99.90
72940;DHT22;61094;51.154;13.570;2023-02-01T11:05:47;5.20;99.90
72940;DHT22;61094;51.154;13.570;2023-02-01T11:07:50;5.20;99.90
72940;DHT22;61094;51.154;13.570;2023-02-01T11:09:55;5.20;99.90
72940;DHT22;61094;51.154;13.570;2023-02-01T11:11:57;5.20;99.90
72940;DHT22;61094;51.154;13.570;2023-02-01T11:14:10;5.30;99.90
72940;DHT22;61094;51.154;13.570;2023-02-01T11:16:14;5.30;99.90
72940;DHT22;61094;51.154;13.570;2023-02-01T11:18:18;5.30;99.90
72940;DHT22;61094;51.154;13.570;2023-02-01T11:20:21;5.40;99.90
72940;DHT22;61094;51.154;13.570;2023-02-01T11:22:27;5.40;99.90
72940;DHT22;61094;51.154;13.570;2023-02-01T11:24:32;5.40;99.90
72940;DHT22;61094;51.154;13.570;2023-02-01T11:26:39;5.50;99.90
72940;DHT22;61094;51.154;13.570;2023-02-01T11:28:49;5.50;99.90
72940;DHT22;61094;51.154;13.570;2023-02-01T11:30:54;5.50;99.90
72940;DHT22;61094;51.154;13.570;2023-02-01T11:32:58;5.50;99.90
72940;DHT22;61094;51.154;13.570;2023-02-01T11:35:02;5.50;99.90
72940;DHT22;61094;51.154;13.570;2023-02-01T11:37:16;5.50;99.90
72940;DHT22;61094;51.154;13.570;2023-02-01T11:39:23;5.50;99.90
72940;DHT22;61094;51.154;13.570;2023-02-01T11:41:27;5.60;99.90
72940;DHT22;61094;51.154;13.570;2023-02-01T11:43:29;5.60;99.90
72940;DHT22;61094;51.154;13.570;2023-02-01T11:45:32;5.60;99.90
72940;DHT22;61094;51.154;13.570;2023-02-01T11:47:39;5.60;99.90
72940;DHT22;61094;51.154;13.570;2023-02-01T11:49:42;5.60;99.90
72940;DHT22;61094;51.154;13.570;2023-02-01T11:51:52;5.60;99.90
72940;DHT22;61094;51.154;13.570;2023-02-01T11:54:10;5.50;99.90
72940;DHT22;61094;51.154;13.570;2023-02-01T11:56:22;5.40;99.90
72940;DHT22;61094;51.154;13.570;2023-02-01T11:58:46;5.40;99.90
72940;DHT22;61094;51.154;13.570;2023-02-01T12:01:02;5.40;99.90
72940;DHT22;61094;51.154;13.570;2023-02-01T12:03:30;5.40;99.90
72940;DHT22;61094;51.154;13.570;2023-02-01T12:05:45;5.40;99.90
72940;DHT22;61094;51.154;13.570;2023-02-01T12:08:10;5.60;99.90
72940;DHT22;61094;51.154;13.570;2023-02-01T12:10:25;5.70;99.90
72940;DHT22;61094;51.154;13.570;2023-02-01T12:12:38;5.90;99.90
72940;DHT22;61094;51.154;13.570;2023-02-01T12:14:55;5.90;99.90
72940;DHT22;61094;51.154;13.570;2023-02-01T12:17:12;6.00;99.90
72940;DHT22;61094;51.154;13.570;2023-02-01T12:19:30;6.00;99.90
72940;DHT22;61094;51.154;13.570;2023-02-01T12:21:49;6.00;99.90
72940;DHT22;61094;51.154;13.570;2023-02-01T12:24:06;6.10;99.90
72940;DHT22;61094;51.154;13.570;2023-02-01T12:26:37;6.10;99.90
72940;DHT22;61094;51.154;13.570;2023-02-01T12:29:09;6.10;99.90
72940;DHT22;61094;51.154;13.570;2023-02-01T12:31:29;6.10;99.90
72940;DHT22;61094;51.154;13.570;2023-02-01T12:33:44;6.10;99.90
72940;DHT22;61094;51.154;13.570;2023-02-01T12:36:03;6.20;99.90
72940;DHT22;61094;51.154;13.570;2023-02-01T12:38:24;6.20;99.90
72940;DHT22;61094;51.154;13.570;2023-02-01T12:40:42;6.20;99.90
72940;DHT22;61094;51.154;13.570;2023-02-01T12:42:51;6.20;99.90
72940;DHT22;61094;51.154;13.570;2023-02-01T12:44:59;6.20;99.90
72940;DHT22;61094;51.154;13.570;2023-02-01T12:47:06;6.20;99.90
72940;DHT22;61094;51.154;13.570;2023-02-01T12:49:15;6.20;99.90
72940;DHT22;61094;51.154;13.570;2023-02-01T12:51:20;6.20;99.90
72940;DHT22;61094;51.154;13.570;2023-02-01T12:53:27;6.20;99.90
72940;DHT22;61094;51.154;13.570;2023-02-01T12:55:36;6.20;99.90
72940;DHT22;61094;51.154;13.570;2023-02-01T12:57:41;6.20;99.90
72940;DHT22;61094;51.154;13.570;2023-02-01T12:59:48;6.20;99.90
72940;DHT22;61094;51.154;13.570;2023-02-01T13:01:54;6.20;99.90
72940;DHT22;61094;51.154;13.570;2023-02-01T13:04:03;6.20;99.90
72940;DHT22;61094;51.154;13.570;2023-02-01T13:06:09;6.30;99.90
72940;DHT22;61094;51.154;13.570;2023-02-01T13:08:17;6.30;99.90
72940;DHT22;61094;51.154;13.570;2023-02-01T13:10:31;6.30;99.90
72940;DHT22;61094;51.154;13.570;2023-02-01T13:12:38;6.30;99.90
72940;DHT22;61094;51.154;13.570;2023-02-01T13:14:44;6.40;99.90
72940;DHT22;61094;51.154;13.570;2023-02-01T13:16:49;6.40;99.90
72940;DHT22;61094;51.154;13.570;2023-02-01T13:18:53;6.40;99.90
72940;DHT22;61094;51.154;13.570;2023-02-01T13:21:02;6.50;99.90
72940;DHT22;61094;51.154;13.570;2023-02-01T13:23:08;6.50;99.90